sensor_id;sensor_type;location;lat;lon;timestamp;temperature;humidity
18412;DHT22;27097;51.738;19.472;2023-02-28T00:00:18;22.40;70.60
18412;DHT22;27097;51.738;19.472;2023-02-28T00:02:46;22.30;70.70
18412;DHT22;27097;51.738;19.472;2023-02-28T00:05:15;22.30;69.90
18412;DHT22;27097;51.738;19.472;2023-02-28T00:07:42;22.30;69.00
18412;DHT22;27097;51.738;19.472;2023-02-28T00:10:11;22.30;70.00
18412;DHT22;27097;51.738;19.472;2023-02-28T00:12:40;22.30;67.80
18412;DHT22;27097;51.738;19.472;2023-02-28T00:15:09;22.30;65.60
18412;DHT22;27097;51.738;19.472;2023-02-28T00:17:36;22.20;64.60
18412;DHT22;27097;51.738;19.472;2023-02-28T00:20:05;22.20;65.60
18412;DHT22;27097;51.738;19.472;2023-02-28T00:22:34;22.20;64.30
18412;DHT22;27097;51.738;19.472;2023-02-28T00:25:00;22.20;63.60
18412;DHT22;27097;51.738;19.472;2023-02-28T00:27:27;22.20;63.90
18412;DHT22;27097;51.738;19.472;2023-02-28T00:29:55;22.10;63.20
18412;DHT22;27097;51.738;19.472;2023-02-28T00:32:22;22.10;62.10
18412;DHT22;27097;51.738;19.472;2023-02-28T00:34:49;22.10;63.40
18412;DHT22;27097;51.738;19.472;2023-02-28T00:37:16;22.10;63.00
18412;DHT22;27097;51.738;19.472;2023-02-28T00:39:43;22.10;65.50
18412;DHT22;27097;51.738;19.472;2023-02-28T00:42:10;22.10;66.30
18412;DHT22;27097;51.738;19.472;2023-02-28T00:44:37;22.10;67.10
18412;DHT22;27097;51.738;19.472;2023-02-28T00:47:06;22.00;68.00
18412;DHT22;27097;51.738;19.472;2023-02-28T00:49:33;22.00;68.80
18412;DHT22;27097;51.738;19.472;2023-02-28T00:52:00;22.00;69.20
18412;DHT22;27097;51.738;19.472;2023-02-28T00:54:27;22.00;69.60
18412;DHT22;27097;51.738;19.472;2023-02-28T00:56:54;22.00;69.90
18412;DHT22;27097;51.738;19.472;2023-02-28T00:59:21;22.00;70.10
18412;DHT22;27097;51.738;19.472;2023-02-28T01:01:48;22.00;70.40
18412;DHT22;27097;51.738;19.472;2023-02-28T01:04:16;22.00;70.60
18412;DHT22;27097;51.738;19.472;2023-02-28T01:06:43;22.00;70.40
18412;DHT22;27097;51.738;19.472;2023-02-28T01:09:11;22.00;70.70
18412;DHT22;27097;51.738;19.472;2023-02-28T01:11:38;22.00;71.00
18412;DHT22;27097;51.738;19.472;2023-02-28T01:14:07;22.00;71.90
18412;DHT22;27097;51.738;19.472;2023-02-28T01:16:34;22.00;71.10
18412;DHT22;27097;51.738;19.472;2023-02-28T01:19:00;22.00;71.10
18412;DHT22;27097;51.738;19.472;2023-02-28T01:21:29;22.00;71.90
18412;DHT22;27097;51.738;19.472;2023-02-28T01:23:56;22.00;71.50
18412;DHT22;27097;51.738;19.472;2023-02-28T01:26:24;22.00;71.70
18412;DHT22;27097;51.738;19.472;2023-02-28T01:28:52;22.00;71.90
18412;DHT22;27097;51.738;19.472;2023-02-28T01:31:20;22.00;72.20
18412;DHT22;27097;51.738;19.472;2023-02-28T01:33:47;22.00;72.40
18412;DHT22;27097;51.738;19.472;2023-02-28T01:36:16;22.00;72.50
18412;DHT22;27097;51.738;19.472;2023-02-28T01:38:45;22.00;72.40
18412;DHT22;27097;51.738;19.472;2023-02-28T01:41:16;22.00;72.80
18412;DHT22;27097;51.738;19.472;2023-02-28T01:43:56;22.00;73.00
18412;DHT22;27097;51.738;19.472;2023-02-28T01:46:23;22.00;72.70
18412;DHT22;27097;51.738;19.472;2023-02-28T01:48:52;22.00;73.80
18412;DHT22;27097;51.738;19.472;2023-02-28T01:51:22;22.00;73.70
18412;DHT22;27097;51.738;19.472;2023-02-28T01:53:53;22.00;73.90
18412;DHT22;27097;51.738;19.472;2023-02-28T01:56:24;22.00;73.70
18412;DHT22;27097;51.738;19.472;2023-02-28T01:58:53;22.00;74.00
18412;DHT22;27097;51.738;19.472;2023-02-28T02:01:21;22.00;74.20
18412;DHT22;27097;51.738;19.472;2023-02-28T02:03:49;22.00;74.30
18412;DHT22;27097;51.738;19.472;2023-02-28T02:06:21;22.00;74.60
18412;DHT22;27097;51.738;19.472;2023-02-28T02:08:48;22.00;75.00
18412;DHT22;27097;51.738;19.472;2023-02-28T02:11:19;22.00;75.00
18412;DHT22;27097;51.738;19.472;2023-02-28T02:14:13;22.00;75.10
18412;DHT22;27097;51.738;19.472;2023-02-28T02:16:53;22.00;75.00
18412;DHT22;27097;51.738;19.472;2023-02-28T02:23:02;22.00;74.70
18412;DHT22;27097;51.738;19.472;2023-02-28T02:25:36;22.10;74.90
18412;DHT22;27097;51.738;19.472;2023-02-28T02:28:31;22.10;75.50
18412;DHT22;27097;51.738;19.472;2023-02-28T02:34:31;22.10;75.40
18412;DHT22;27097;51.738;19.472;2023-02-28T02:37:11;22.10;75.50
18412;DHT22;27097;51.738;19.472;2023-02-28T02:39:47;22.10;75.40
18412;DHT22;27097;51.738;19.472;2023-02-28T02:42:19;22.10;75.40
18412;DHT22;27097;51.738;19.472;2023-02-28T02:44:50;22.10;75.60
18412;DHT22;27097;51.738;19.472;2023-02-28T02:47:21;22.10;75.50
18412;DHT22;27097;51.738;19.472;2023-02-28T02:49:52;22.10;75.70
18412;DHT22;27097;51.738;19.472;2023-02-28T02:52:25;22.10;75.90
18412;DHT22;27097;51.738;19.472;2023-02-28T02:54:56;22.10;75.80
18412;DHT22;27097;51.738;19.472;2023-02-28T02:57:27;22.10;76.40
18412;DHT22;27097;51.738;19.472;2023-02-28T02:59:57;22.10;76.30
18412;DHT22;27097;51.738;19.472;2023-02-28T03:02:27;22.10;76.30
18412;DHT22;27097;51.738;19.472;2023-02-28T03:05:04;22.10;76.20
18412;DHT22;27097;51.738;19.472;2023-02-28T03:07:32;22.10;76.00
18412;DHT22;27097;51.738;19.472;2023-02-28T03:09:59;22.10;76.30
18412;DHT22;27097;51.738;19.472;2023-02-28T03:12:32;22.10;76.90
18412;DHT22;27097;51.738;19.472;2023-02-28T03:15:08;22.10;76.50
18412;DHT22;27097;51.738;19.472;2023-02-28T03:17:47;22.10;76.40
18412;DHT22;27097;51.738;19.472;2023-02-28T03:20:23;22.10;76.00
18412;DHT22;27097;51.738;19.472;2023-02-28T03:23:02;22.10;76.30
18412;DHT22;27097;51.738;19.472;2023-02-28T03:25:34;22.10;76.40
18412;DHT22;27097;51.738;19.472;2023-02-28T03:28:09;22.10;76.40
18412;DHT22;27097;51.738;19.472;2023-02-28T03:30:43;22.10;76.40
18412;DHT22;27097;51.738;19.472;2023-02-28T03:33:15;22.10;76.50
18412;DHT22;27097;51.738;19.472;2023-02-28T03:35:49;22.10;76.70
18412;DHT22;27097;51.738;19.472;2023-02-28T03:38:22;22.10;76.70
18412;DHT22;27097;51.738;19.472;2023-02-28T03:40:53;22.10;76.50
18412;DHT22;27097;51.738;19.472;2023-02-28T03:43:24;22.10;76.40
18412;DHT22;27097;51.738;19.472;2023-02-28T03:45:55;22.10;76.50
18412;DHT22;27097;51.738;19.472;2023-02-28T03:48:25;22.10;76.70
18412;DHT22;27097;51.738;19.472;2023-02-28T03:50:58;22.10;76.50
18412;DHT22;27097;51.738;19.472;2023-02-28T03:53:28;22.10;76.50
18412;DHT22;27097;51.738;19.472;2023-02-28T03:55:59;22.10;76.70
18412;DHT22;27097;51.738;19.472;2023-02-28T03:58:30;22.10;76.90
18412;DHT22;27097;51.738;19.472;2023-02-28T04:01:03;22.10;76.50
18412;DHT22;27097;51.738;19.472;2023-02-28T04:03:34;22.10;76.50
18412;DHT22;27097;51.738;19.472;2023-02-28T04:06:03;22.10;76.80
18412;DHT22;27097;51.738;19.472;2023-02-28T04:08:31;22.10;77.00
18412;DHT22;27097;51.738;19.472;2023-02-28T04:11:01;22.10;76.50
18412;DHT22;27097;51.738;19.472;2023-02-28T04:13:29;22.10;76.70
18412;DHT22;27097;51.738;19.472;2023-02-28T04:15:56;22.10;76.70
18412;DHT22;27097;51.738;19.472;2023-02-28T04:18:23;22.10;76.80
18412;DHT22;27097;51.738;19.472;2023-02-28T04:20:50;22.10;76.70
18412;DHT22;27097;51.738;19.472;2023-02-28T04:23:18;22.10;76.70
18412;DHT22;27097;51.738;19.472;2023-02-28T04:25:45;22.10;76.80
18412;DHT22;27097;51.738;19.472;2023-02-28T04:28:12;22.10;76.80
18412;DHT22;27097;51.738;19.472;2023-02-28T04:30:39;22.10;76.70
18412;DHT22;27097;51.738;19.472;2023-02-28T04:33:06;22.10;77.20
18412;DHT22;27097;51.738;19.472;2023-02-28T04:35:32;22.10;76.70
18412;DHT22;27097;51.738;19.472;2023-02-28T04:37:59;22.10;76.60
18412;DHT22;27097;51.738;19.472;2023-02-28T04:40:27;22.10;76.50
18412;DHT22;27097;51.738;19.472;2023-02-28T04:42:54;22.10;77.00
18412;DHT22;27097;51.738;19.472;2023-02-28T04:45:21;22.10;77.20
18412;DHT22;27097;51.738;19.472;2023-02-28T04:47:48;22.20;76.80
18412;DHT22;27097;51.738;19.472;2023-02-28T04:50:15;22.10;76.90
18412;DHT22;27097;51.738;19.472;2023-02-28T04:52:42;22.20;76.70
18412;DHT22;27097;51.738;19.472;2023-02-28T04:55:09;22.10;76.40
18412;DHT22;27097;51.738;19.472;2023-02-28T04:57:38;22.10;76.50
18412;DHT22;27097;51.738;19.472;2023-02-28T05:00:05;22.10;76.40
18412;DHT22;27097;51.738;19.472;2023-02-28T05:02:37;22.10;76.50
18412;DHT22;27097;51.738;19.472;2023-02-28T05:05:04;22.20;76.40
18412;DHT22;27097;51.738;19.472;2023-02-28T05:07:31;22.10;76.70
18412;DHT22;27097;51.738;19.472;2023-02-28T05:09:58;22.10;76.70
18412;DHT22;27097;51.738;19.472;2023-02-28T05:12:25;22.20;76.60
18412;DHT22;27097;51.738;19.472;2023-02-28T05:14:53;22.20;76.50
18412;DHT22;27097;51.738;19.472;2023-02-28T05:17:20;22.10;76.50
18412;DHT22;27097;51.738;19.472;2023-02-28T05:19:47;22.20;76.30
18412;DHT22;27097;51.738;19.472;2023-02-28T05:22:14;22.10;76.70
18412;DHT22;27097;51.738;19.472;2023-02-28T05:24:42;22.20;76.50
18412;DHT22;27097;51.738;19.472;2023-02-28T05:27:09;22.10;76.50
18412;DHT22;27097;51.738;19.472;2023-02-28T05:29:36;22.20;76.40
18412;DHT22;27097;51.738;19.472;2023-02-28T05:32:09;22.10;76.30
18412;DHT22;27097;51.738;19.472;2023-02-28T05:34:37;22.10;75.80
18412;DHT22;27097;51.738;19.472;2023-02-28T05:37:04;22.10;76.40
18412;DHT22;27097;51.738;19.472;2023-02-28T05:39:31;22.10;76.10
18412;DHT22;27097;51.738;19.472;2023-02-28T05:41:58;22.20;76.20
18412;DHT22;27097;51.738;19.472;2023-02-28T05:44:25;22.10;76.40
18412;DHT22;27097;51.738;19.472;2023-02-28T05:46:51;22.20;76.60
18412;DHT22;27097;51.738;19.472;2023-02-28T05:49:20;22.10;76.40
18412;DHT22;27097;51.738;19.472;2023-02-28T05:51:47;22.10;76.30
18412;DHT22;27097;51.738;19.472;2023-02-28T05:54:14;22.20;76.50
18412;DHT22;27097;51.738;19.472;2023-02-28T05:56:41;22.20;76.70
18412;DHT22;27097;51.738;19.472;2023-02-28T05:59:09;22.20;76.50
18412;DHT22;27097;51.738;19.472;2023-02-28T06:01:38;22.20;76.90
18412;DHT22;27097;51.738;19.472;2023-02-28T06:04:07;22.20;76.50
18412;DHT22;27097;51.738;19.472;2023-02-28T06:06:36;22.20;76.30
18412;DHT22;27097;51.738;19.472;2023-02-28T06:09:04;22.20;76.30
18412;DHT22;27097;51.738;19.472;2023-02-28T06:11:31;22.20;76.80
18412;DHT22;27097;51.738;19.472;2023-02-28T06:13:59;22.20;76.00
18412;DHT22;27097;51.738;19.472;2023-02-28T06:16:26;22.20;76.30
18412;DHT22;27097;51.738;19.472;2023-02-28T06:18:54;22.20;76.40
18412;DHT22;27097;51.738;19.472;2023-02-28T06:21:22;22.30;76.60
18412;DHT22;27097;51.738;19.472;2023-02-28T06:23:50;22.20;76.20
18412;DHT22;27097;51.738;19.472;2023-02-28T06:26:17;22.20;76.50
18412;DHT22;27097;51.738;19.472;2023-02-28T06:28:44;22.20;76.80
18412;DHT22;27097;51.738;19.472;2023-02-28T06:31:13;22.20;76.50
18412;DHT22;27097;51.738;19.472;2023-02-28T06:33:40;22.20;76.50
18412;DHT22;27097;51.738;19.472;2023-02-28T06:36:09;22.30;77.50
18412;DHT22;27097;51.738;19.472;2023-02-28T06:38:36;22.30;78.00
18412;DHT22;27097;51.738;19.472;2023-02-28T06:41:05;22.40;77.30
18412;DHT22;27097;51.738;19.472;2023-02-28T06:43:35;22.40;74.80
18412;DHT22;27097;51.738;19.472;2023-02-28T06:46:05;22.50;73.70
18412;DHT22;27097;51.738;19.472;2023-02-28T06:48:32;22.60;71.90
18412;DHT22;27097;51.738;19.472;2023-02-28T06:51:04;22.70;70.40
18412;DHT22;27097;51.738;19.472;2023-02-28T06:53:31;22.70;71.90
18412;DHT22;27097;51.738;19.472;2023-02-28T06:55:58;22.80;69.60
18412;DHT22;27097;51.738;19.472;2023-02-28T06:58:26;22.80;71.10
18412;DHT22;27097;51.738;19.472;2023-02-28T07:00:53;22.80;68.00
18412;DHT22;27097;51.738;19.472;2023-02-28T07:03:21;22.90;66.20
18412;DHT22;27097;51.738;19.472;2023-02-28T07:05:48;22.90;67.40
18412;DHT22;27097;51.738;19.472;2023-02-28T07:08:16;22.90;67.80
18412;DHT22;27097;51.738;19.472;2023-02-28T07:10:43;22.90;68.20
18412;DHT22;27097;51.738;19.472;2023-02-28T07:13:11;22.90;66.10
18412;DHT22;27097;51.738;19.472;2023-02-28T07:15:39;22.90;63.40
18412;DHT22;27097;51.738;19.472;2023-02-28T07:18:06;22.90;61.20
18412;DHT22;27097;51.738;19.472;2023-02-28T07:20:33;22.90;62.80
18412;DHT22;27097;51.738;19.472;2023-02-28T07:23:00;22.90;65.80
18412;DHT22;27097;51.738;19.472;2023-02-28T07:25:28;22.90;62.10
18412;DHT22;27097;51.738;19.472;2023-02-28T07:27:56;22.90;60.70
18412;DHT22;27097;51.738;19.472;2023-02-28T07:30:24;22.90;63.40
18412;DHT22;27097;51.738;19.472;2023-02-28T07:32:52;22.90;61.40
18412;DHT22;27097;51.738;19.472;2023-02-28T07:35:20;22.90;60.00
18412;DHT22;27097;51.738;19.472;2023-02-28T07:37:48;22.90;60.90
18412;DHT22;27097;51.738;19.472;2023-02-28T07:40:15;23.00;60.40
18412;DHT22;27097;51.738;19.472;2023-02-28T07:42:43;23.00;61.20
18412;DHT22;27097;51.738;19.472;2023-02-28T07:45:11;23.00;60.30
18412;DHT22;27097;51.738;19.472;2023-02-28T07:47:38;23.00;59.10
18412;DHT22;27097;51.738;19.472;2023-02-28T07:50:08;23.10;59.60
18412;DHT22;27097;51.738;19.472;2023-02-28T07:52:37;23.10;59.50
18412;DHT22;27097;51.738;19.472;2023-02-28T07:55:06;23.10;57.30
18412;DHT22;27097;51.738;19.472;2023-02-28T07:57:33;23.10;55.60
18412;DHT22;27097;51.738;19.472;2023-02-28T08:00:00;23.20;57.20
18412;DHT22;27097;51.738;19.472;2023-02-28T08:02:28;23.20;59.70
18412;DHT22;27097;51.738;19.472;2023-02-28T08:04:55;23.20;64.80
18412;DHT22;27097;51.738;19.472;2023-02-28T08:07:23;23.30;66.80
18412;DHT22;27097;51.738;19.472;2023-02-28T08:09:50;23.30;66.30
18412;DHT22;27097;51.738;19.472;2023-02-28T08:12:17;23.30;65.70
18412;DHT22;27097;51.738;19.472;2023-02-28T08:14:44;23.40;67.20
18412;DHT22;27097;51.738;19.472;2023-02-28T08:17:11;23.40;65.50
18412;DHT22;27097;51.738;19.472;2023-02-28T08:19:38;23.40;64.60
18412;DHT22;27097;51.738;19.472;2023-02-28T08:22:05;23.50;64.30
18412;DHT22;27097;51.738;19.472;2023-02-28T08:24:34;23.50;63.50
18412;DHT22;27097;51.738;19.472;2023-02-28T08:27:01;23.50;65.10
18412;DHT22;27097;51.738;19.472;2023-02-28T08:29:28;23.60;64.40
18412;DHT22;27097;51.738;19.472;2023-02-28T08:31:55;23.60;59.70
18412;DHT22;27097;51.738;19.472;2023-02-28T08:34:27;23.60;59.70
18412;DHT22;27097;51.738;19.472;2023-02-28T08:36:53;23.70;58.40
18412;DHT22;27097;51.738;19.472;2023-02-28T08:39:21;23.80;58.20
18412;DHT22;27097;51.738;19.472;2023-02-28T08:41:52;23.80;57.30
18412;DHT22;27097;51.738;19.472;2023-02-28T08:44:19;23.90;56.70
18412;DHT22;27097;51.738;19.472;2023-02-28T08:46:45;23.90;56.70
18412;DHT22;27097;51.738;19.472;2023-02-28T08:49:12;24.00;57.10
18412;DHT22;27097;51.738;19.472;2023-02-28T08:51:39;24.00;56.70
18412;DHT22;27097;51.738;19.472;2023-02-28T08:54:07;24.10;56.50
18412;DHT22;27097;51.738;19.472;2023-02-28T08:56:34;24.10;56.90
18412;DHT22;27097;51.738;19.472;2023-02-28T08:59:03;24.20;55.90
18412;DHT22;27097;51.738;19.472;2023-02-28T09:01:30;24.20;56.90
18412;DHT22;27097;51.738;19.472;2023-02-28T09:03:58;24.30;56.50
18412;DHT22;27097;51.738;19.472;2023-02-28T09:06:26;24.30;55.90
18412;DHT22;27097;51.738;19.472;2023-02-28T09:08:53;24.30;56.10
18412;DHT22;27097;51.738;19.472;2023-02-28T09:11:24;24.30;55.60
18412;DHT22;27097;51.738;19.472;2023-02-28T09:13:50;24.40;56.00
18412;DHT22;27097;51.738;19.472;2023-02-28T09:16:19;24.40;56.60
18412;DHT22;27097;51.738;19.472;2023-02-28T09:18:46;24.40;57.70
18412;DHT22;27097;51.738;19.472;2023-02-28T09:21:14;24.30;48.90
18412;DHT22;27097;51.738;19.472;2023-02-28T09:23:42;24.30;57.40
18412;DHT22;27097;51.738;19.472;2023-02-28T09:26:13;24.30;61.30
18412;DHT22;27097;51.738;19.472;2023-02-28T09:28:41;24.20;62.00
18412;DHT22;27097;51.738;19.472;2023-02-28T09:31:12;24.20;62.50
18412;DHT22;27097;51.738;19.472;2023-02-28T09:33:41;24.20;62.20
18412;DHT22;27097;51.738;19.472;2023-02-28T09:36:08;24.20;63.80
18412;DHT22;27097;51.738;19.472;2023-02-28T09:38:35;24.20;63.90
18412;DHT22;27097;51.738;19.472;2023-02-28T09:41:10;24.10;62.90
18412;DHT22;27097;51.738;19.472;2023-02-28T09:43:40;24.10;56.10
18412;DHT22;27097;51.738;19.472;2023-02-28T09:46:18;24.10;56.20
18412;DHT22;27097;51.738;19.472;2023-02-28T09:48:50;24.10;56.60
18412;DHT22;27097;51.738;19.472;2023-02-28T09:51:29;24.10;55.70
18412;DHT22;27097;51.738;19.472;2023-02-28T09:53:56;24.10;55.70
18412;DHT22;27097;51.738;19.472;2023-02-28T09:56:26;24.10;56.60
18412;DHT22;27097;51.738;19.472;2023-02-28T09:58:57;24.10;57.90
18412;DHT22;27097;51.738;19.472;2023-02-28T10:01:30;24.10;59.10
18412;DHT22;27097;51.738;19.472;2023-02-28T10:04:02;24.10;57.00
18412;DHT22;27097;51.738;19.472;2023-02-28T10:06:35;24.10;56.30
18412;DHT22;27097;51.738;19.472;2023-02-28T10:09:05;24.10;58.00
18412;DHT22;27097;51.738;19.472;2023-02-28T10:11:36;24.10;58.00
18412;DHT22;27097;51.738;19.472;2023-02-28T10:14:11;24.10;59.90
18412;DHT22;27097;51.738;19.472;2023-02-28T10:16:43;24.00;48.60
18412;DHT22;27097;51.738;19.472;2023-02-28T10:19:17;23.90;42.80
18412;DHT22;27097;51.738;19.472;2023-02-28T10:21:51;23.80;41.20
18412;DHT22;27097;51.738;19.472;2023-02-28T10:24:26;23.70;40.10
18412;DHT22;27097;51.738;19.472;2023-02-28T10:27:00;23.60;40.00
18412;DHT22;27097;51.738;19.472;2023-02-28T10:29:28;23.40;41.10
18412;DHT22;27097;51.738;19.472;2023-02-28T10:32:00;23.30;39.40
18412;DHT22;27097;51.738;19.472;2023-02-28T10:34:29;23.20;36.80
18412;DHT22;27097;51.738;19.472;2023-02-28T10:36:58;23.00;39.70
18412;DHT22;27097;51.738;19.472;2023-02-28T10:39:40;23.00;41.60
18412;DHT22;27097;51.738;19.472;2023-02-28T10:42:21;22.90;40.50
18412;DHT22;27097;51.738;19.472;2023-02-28T10:45:05;22.80;39.50
18412;DHT22;27097;51.738;19.472;2023-02-28T10:47:33;22.70;38.90
18412;DHT22;27097;51.738;19.472;2023-02-28T10:50:03;22.50;39.70
18412;DHT22;27097;51.738;19.472;2023-02-28T10:52:36;22.40;39.90
18412;DHT22;27097;51.738;19.472;2023-02-28T10:55:21;22.30;43.50
18412;DHT22;27097;51.738;19.472;2023-02-28T10:57:49;22.30;43.90
18412;DHT22;27097;51.738;19.472;2023-02-28T11:00:18;22.30;43.10
18412;DHT22;27097;51.738;19.472;2023-02-28T11:02:45;22.10;42.30
18412;DHT22;27097;51.738;19.472;2023-02-28T11:05:28;22.00;44.00
18412;DHT22;27097;51.738;19.472;2023-02-28T11:07:56;21.90;44.00
18412;DHT22;27097;51.738;19.472;2023-02-28T11:10:28;21.80;40.20
18412;DHT22;27097;51.738;19.472;2023-02-28T11:12:58;21.70;43.50
18412;DHT22;27097;51.738;19.472;2023-02-28T11:15:27;21.70;43.50
18412;DHT22;27097;51.738;19.472;2023-02-28T11:17:57;21.80;43.90
18412;DHT22;27097;51.738;19.472;2023-02-28T11:20:28;21.90;45.30
18412;DHT22;27097;51.738;19.472;2023-02-28T11:22:57;22.10;42.50
18412;DHT22;27097;51.738;19.472;2023-02-28T11:25:28;22.10;41.70
18412;DHT22;27097;51.738;19.472;2023-02-28T11:27:58;22.10;45.10
18412;DHT22;27097;51.738;19.472;2023-02-28T11:30:32;22.40;43.90
18412;DHT22;27097;51.738;19.472;2023-02-28T11:33:00;22.80;44.00
18412;DHT22;27097;51.738;19.472;2023-02-28T11:35:31;23.30;41.20
18412;DHT22;27097;51.738;19.472;2023-02-28T11:38:00;23.80;42.70
18412;DHT22;27097;51.738;19.472;2023-02-28T11:40:33;24.00;41.40
18412;DHT22;27097;51.738;19.472;2023-02-28T11:43:12;23.90;41.80
18412;DHT22;27097;51.738;19.472;2023-02-28T11:45:55;23.60;42.50
18412;DHT22;27097;51.738;19.472;2023-02-28T11:48:33;23.20;43.80
18412;DHT22;27097;51.738;19.472;2023-02-28T11:51:14;22.90;42.00
18412;DHT22;27097;51.738;19.472;2023-02-28T11:56:46;22.30;43.50
18412;DHT22;27097;51.738;19.472;2023-02-28T11:59:40;22.10;43.90
18412;DHT22;27097;51.738;19.472;2023-02-28T12:02:23;21.90;42.20
18412;DHT22;27097;51.738;19.472;2023-02-28T12:05:01;21.70;45.30
18412;DHT22;27097;51.738;19.472;2023-02-28T12:07:42;21.60;44.80
18412;DHT22;27097;51.738;19.472;2023-02-28T12:10:21;21.50;43.50
18412;DHT22;27097;51.738;19.472;2023-02-28T12:12:56;21.40;43.10
18412;DHT22;27097;51.738;19.472;2023-02-28T12:15:59;21.30;43.10
18412;DHT22;27097;51.738;19.472;2023-02-28T12:18:43;21.20;41.50
18412;DHT22;27097;51.738;19.472;2023-02-28T12:21:20;21.00;41.50
18412;DHT22;27097;51.738;19.472;2023-02-28T12:24:00;20.80;39.80
18412;DHT22;27097;51.738;19.472;2023-02-28T12:26:36;20.70;41.20
18412;DHT22;27097;51.738;19.472;2023-02-28T12:29:10;20.60;37.60
18412;DHT22;27097;51.738;19.472;2023-02-28T12:31:41;20.40;38.10
18412;DHT22;27097;51.738;19.472;2023-02-28T12:34:12;20.10;38.40
18412;DHT22;27097;51.738;19.472;2023-02-28T12:36:41;20.00;40.20
18412;DHT22;27097;51.738;19.472;2023-02-28T12:39:16;20.00;47.00
18412;DHT22;27097;51.738;19.472;2023-02-28T12:41:48;20.10;49.30
18412;DHT22;27097;51.738;19.472;2023-02-28T12:44:21;20.40;51.30
18412;DHT22;27097;51.738;19.472;2023-02-28T12:46:51;20.50;54.40
18412;DHT22;27097;51.738;19.472;2023-02-28T12:49:21;20.70;57.00
18412;DHT22;27097;51.738;19.472;2023-02-28T12:51:51;20.90;56.70
18412;DHT22;27097;51.738;19.472;2023-02-28T12:54:24;21.10;59.00
18412;DHT22;27097;51.738;19.472;2023-02-28T12:56:57;21.20;61.30
18412;DHT22;27097;51.738;19.472;2023-02-28T12:59:34;21.30;61.00
18412;DHT22;27097;51.738;19.472;2023-02-28T13:02:42;21.40;61.20
18412;DHT22;27097;51.738;19.472;2023-02-28T13:05:24;21.50;53.90
18412;DHT22;27097;51.738;19.472;2023-02-28T13:08:16;21.60;59.00
18412;DHT22;27097;51.738;19.472;2023-02-28T13:10:49;21.60;59.80
18412;DHT22;27097;51.738;19.472;2023-02-28T13:13:21;21.60;59.50
18412;DHT22;27097;51.738;19.472;2023-02-28T13:16:02;21.70;59.60
18412;DHT22;27097;51.738;19.472;2023-02-28T13:18:35;21.70;60.00
18412;DHT22;27097;51.738;19.472;2023-02-28T13:21:03;21.80;60.80
18412;DHT22;27097;51.738;19.472;2023-02-28T13:23:58;21.80;61.30
18412;DHT22;27097;51.738;19.472;2023-02-28T13:29:34;21.80;61.80
18412;DHT22;27097;51.738;19.472;2023-02-28T13:32:32;21.90;62.10
18412;DHT22;27097;51.738;19.472;2023-02-28T13:38:33;21.90;62.50
18412;DHT22;27097;51.738;19.472;2023-02-28T13:44:07;22.00;63.00
18412;DHT22;27097;51.738;19.472;2023-02-28T13:46:38;22.00;63.40
18412;DHT22;27097;51.738;19.472;2023-02-28T13:49:29;22.00;63.40
18412;DHT22;27097;51.738;19.472;2023-02-28T13:52:09;22.00;63.60
18412;DHT22;27097;51.738;19.472;2023-02-28T13:54:51;22.00;63.80
18412;DHT22;27097;51.738;19.472;2023-02-28T13:57:29;22.00;64.00
18412;DHT22;27097;51.738;19.472;2023-02-28T14:00:13;22.00;64.20
18412;DHT22;27097;51.738;19.472;2023-02-28T14:03:07;22.00;64.30
18412;DHT22;27097;51.738;19.472;2023-02-28T14:05:37;22.00;64.90
18412;DHT22;27097;51.738;19.472;2023-02-28T14:08:07;22.00;63.30
18412;DHT22;27097;51.738;19.472;2023-02-28T14:10:42;22.00;64.10
18412;DHT22;27097;51.738;19.472;2023-02-28T14:13:38;22.00;64.40
18412;DHT22;27097;51.738;19.472;2023-02-28T14:16:10;22.00;64.20
18412;DHT22;27097;51.738;19.472;2023-02-28T14:18:42;22.00;65.30
18412;DHT22;27097;51.738;19.472;2023-02-28T14:21:21;22.00;64.80
18412;DHT22;27097;51.738;19.472;2023-02-28T14:27:34;22.00;64.50
18412;DHT22;27097;51.738;19.472;2023-02-28T14:30:37;22.10;65.10
18412;DHT22;27097;51.738;19.472;2023-02-28T14:33:27;22.10;66.30
18412;DHT22;27097;51.738;19.472;2023-02-28T14:36:07;22.10;66.50
18412;DHT22;27097;51.738;19.472;2023-02-28T14:38:41;22.10;66.20
18412;DHT22;27097;51.738;19.472;2023-02-28T14:41:20;22.10;66.20
18412;DHT22;27097;51.738;19.472;2023-02-28T14:43:55;22.10;66.40
18412;DHT22;27097;51.738;19.472;2023-02-28T14:46:26;22.10;66.20
18412;DHT22;27097;51.738;19.472;2023-02-28T14:48:54;22.10;66.90
18412;DHT22;27097;51.738;19.472;2023-02-28T14:51:23;22.20;67.10
18412;DHT22;27097;51.738;19.472;2023-02-28T14:53:56;22.10;66.90
18412;DHT22;27097;51.738;19.472;2023-02-28T14:56:26;22.20;67.60
18412;DHT22;27097;51.738;19.472;2023-02-28T14:58:55;22.20;67.90
18412;DHT22;27097;51.738;19.472;2023-02-28T15:01:24;22.20;67.30
18412;DHT22;27097;51.738;19.472;2023-02-28T15:04:00;22.20;67.80
18412;DHT22;27097;51.738;19.472;2023-02-28T15:06:29;22.10;68.00
18412;DHT22;27097;51.738;19.472;2023-02-28T15:09:16;22.10;68.00
18412;DHT22;27097;51.738;19.472;2023-02-28T15:11:47;22.10;67.00
18412;DHT22;27097;51.738;19.472;2023-02-28T15:14:18;22.10;67.10
18412;DHT22;27097;51.738;19.472;2023-02-28T15:16:49;22.10;67.00
18412;DHT22;27097;51.738;19.472;2023-02-28T15:19:21;22.20;66.90
18412;DHT22;27097;51.738;19.472;2023-02-28T15:21:54;22.10;59.50
18412;DHT22;27097;51.738;19.472;2023-02-28T15:24:35;22.20;57.90
18412;DHT22;27097;51.738;19.472;2023-02-28T15:27:05;22.20;57.40
18412;DHT22;27097;51.738;19.472;2023-02-28T15:29:43;22.10;57.20
18412;DHT22;27097;51.738;19.472;2023-02-28T15:32:24;22.10;56.80
18412;DHT22;27097;51.738;19.472;2023-02-28T15:34:52;22.10;57.90
18412;DHT22;27097;51.738;19.472;2023-02-28T15:37:39;22.10;56.70
18412;DHT22;27097;51.738;19.472;2023-02-28T15:40:14;22.10;56.60
18412;DHT22;27097;51.738;19.472;2023-02-28T15:42:41;22.10;58.10
18412;DHT22;27097;51.738;19.472;2023-02-28T15:45:27;22.10;57.40
18412;DHT22;27097;51.738;19.472;2023-02-28T15:47:56;22.10;56.10
18412;DHT22;27097;51.738;19.472;2023-02-28T15:50:24;22.10;58.20
18412;DHT22;27097;51.738;19.472;2023-02-28T15:52:52;22.10;57.50
18412;DHT22;27097;51.738;19.472;2023-02-28T15:55:20;22.10;57.50
18412;DHT22;27097;51.738;19.472;2023-02-28T15:57:50;22.10;57.70
18412;DHT22;27097;51.738;19.472;2023-02-28T16:00:22;22.10;57.60
18412;DHT22;27097;51.738;19.472;2023-02-28T16:02:50;22.00;57.50